createdAt,value
2019-04-05T00:01:12.987Z,77.90
2019-04-05T00:03:45.340Z,78.10
2019-04-05T00:06:17.483Z,78.40
2019-04-05T00:08:49.589Z,78.90
2019-04-05T00:11:22.437Z,80.70
2019-04-05T00:13:54.632Z,80.90
2019-04-05T00:16:26.712Z,81.00
2019-04-05T00:18:58.776Z,81.00
2019-04-05T00:21:30.813Z,81.00
2019-04-05T00:24:02.932Z,80.80
2019-04-05T00:26:35.088Z,80.90
2019-04-05T00:29:07.262Z,80.70
2019-04-05T00:31:39.342Z,80.60
2019-04-05T00:34:11.768Z,80.70
2019-04-05T00:36:44.185Z,81.30
2019-04-05T00:39:16.743Z,81.90
2019-04-05T00:41:48.889Z,82.10
2019-04-05T00:44:21.078Z,81.80
2019-04-05T00:46:53.718Z,81.50
2019-04-05T00:49:26.115Z,81.80
2019-04-05T00:51:58.466Z,81.80
2019-04-05T00:54:30.624Z,82.30
2019-04-05T00:57:02.888Z,82.60
2019-04-05T00:59:35.200Z,82.80
2019-04-05T01:02:07.483Z,82.80
2019-04-05T01:04:39.625Z,82.80
2019-04-05T01:07:12.022Z,82.70
2019-04-05T01:09:44.212Z,83.20
2019-04-05T01:12:16.856Z,83.50
2019-04-05T01:14:49.594Z,82.70
2019-04-05T01:17:25.018Z,83.40
2019-04-05T01:20:00.461Z,83.80
2019-04-05T01:22:35.462Z,84.30
2019-04-05T01:25:08.565Z,84.70
2019-04-05T01:27:43.491Z,85.30
2019-04-05T01:30:18.079Z,85.70
2019-04-05T01:32:50.240Z,85.60
2019-04-05T01:35:22.415Z,86.10
2019-04-05T01:37:55.813Z,86.90
2019-04-05T01:40:32.140Z,86.60
2019-04-05T01:43:05.216Z,86.50
2019-04-05T01:45:37.512Z,86.40
2019-04-05T01:48:09.662Z,87.00
2019-04-05T01:50:42.168Z,87.50
2019-04-05T01:53:14.691Z,88.00
2019-04-05T01:55:46.890Z,88.30
2019-04-05T01:58:19.135Z,88.10
2019-04-05T02:00:51.486Z,88.00
2019-04-05T02:03:23.604Z,88.00
2019-04-05T02:05:55.814Z,88.40
2019-04-05T02:08:28.716Z,88.80
2019-04-05T02:11:00.994Z,89.10
2019-04-05T02:13:33.185Z,89.30
2019-04-05T02:16:06.906Z,89.30
2019-04-05T02:18:39.284Z,89.30
2019-04-05T02:21:11.462Z,89.30
2019-04-05T02:23:44.027Z,89.30
2019-04-05T02:26:16.159Z,89.60
2019-04-05T02:28:48.210Z,89.70
2019-04-05T02:31:20.578Z,89.70
2019-04-05T02:33:55.622Z,89.80
2019-04-05T02:36:27.813Z,89.80
2019-04-05T02:39:02.298Z,89.80
2019-04-05T02:41:35.034Z,89.50
2019-04-05T02:44:13.999Z,89.50
2019-04-05T02:46:49.824Z,89.90
2019-04-05T02:49:25.707Z,90.20
2019-04-05T02:52:01.266Z,90.10
2019-04-05T02:54:35.193Z,90.10
2019-04-05T02:57:08.318Z,89.80
2019-04-05T02:59:40.860Z,89.00
2019-04-05T03:02:13.080Z,88.90
2019-04-05T03:04:45.448Z,88.10
2019-04-05T03:07:18.384Z,88.10
2019-04-05T03:09:51.652Z,87.90
2019-04-05T03:12:24.294Z,87.10
2019-04-05T03:14:58.035Z,86.90
2019-04-05T03:17:30.391Z,87.00
2019-04-05T03:20:04.601Z,86.30
2019-04-05T03:22:38.945Z,86.30
2019-04-05T03:25:12.069Z,86.40
2019-04-05T03:27:44.561Z,86.60
2019-04-05T03:30:16.726Z,86.60
2019-04-05T03:32:49.689Z,86.00
2019-04-05T03:35:22.172Z,86.60
2019-04-05T03:37:54.364Z,86.00
2019-04-05T03:40:26.809Z,86.30
2019-04-05T03:42:59.278Z,86.30
2019-04-05T03:45:31.685Z,86.40
2019-04-05T03:48:03.958Z,86.80
2019-04-05T03:50:36.386Z,87.10
2019-04-05T03:53:08.606Z,87.20
2019-04-05T03:55:40.875Z,87.50
2019-04-05T03:58:13.394Z,87.30
2019-04-05T04:00:46.071Z,87.20
2019-04-05T04:03:18.887Z,87.30
2019-04-05T04:05:51.005Z,87.60
2019-04-05T04:08:23.819Z,87.60
2019-04-05T04:10:57.045Z,87.80
2019-04-05T04:13:29.693Z,87.80
2019-04-05T04:16:02.287Z,88.30
2019-04-05T04:18:34.534Z,88.40
2019-04-05T04:21:33.541Z,88.70
2019-04-05T04:24:06.529Z,88.80
2019-04-05T04:26:39.354Z,88.80
2019-04-05T04:29:12.125Z,88.80
2019-04-05T04:31:44.779Z,88.90
2019-04-05T04:34:17.535Z,89.20
2019-04-05T04:36:50.438Z,89.00
2019-04-05T04:39:23.680Z,89.10
2019-04-05T04:41:57.074Z,89.50
2019-04-05T04:44:29.558Z,88.60
2019-04-05T04:47:02.081Z,87.80
2019-04-05T04:49:34.821Z,88.00
2019-04-05T04:52:07.568Z,87.50
2019-04-05T04:54:40.126Z,87.40
2019-04-05T04:57:13.025Z,86.80
2019-04-05T04:59:45.727Z,87.50
2019-04-05T05:02:18.460Z,86.30
2019-04-05T05:04:51.128Z,85.60
2019-04-05T05:07:23.502Z,85.20
2019-04-05T05:09:55.693Z,84.80
2019-04-05T05:12:28.150Z,84.50
2019-04-05T05:15:00.996Z,84.30
2019-04-05T05:17:38.566Z,84.10
2019-04-05T05:20:08.399Z,83.10
2019-04-05T05:22:40.747Z,82.30
2019-04-05T05:25:13.392Z,81.50
2019-04-05T05:27:46.348Z,81.40
2019-04-05T05:30:19.597Z,80.90
2019-04-05T05:32:52.105Z,80.50
2019-04-05T05:35:24.365Z,80.20
2019-04-05T05:37:57.236Z,80.30
2019-04-05T05:40:35.013Z,78.80
2019-04-05T05:43:04.363Z,77.70
2019-04-05T05:45:36.796Z,78.00
2019-04-05T05:48:09.268Z,77.50
2019-04-05T05:50:42.941Z,77.10
2019-04-05T05:53:15.361Z,76.10
2019-04-05T05:55:47.655Z,74.90
2019-04-05T05:58:19.720Z,75.60
2019-04-05T06:00:52.100Z,74.70
2019-04-05T06:03:24.190Z,75.10
2019-04-05T06:08:30.122Z,73.60
2019-04-05T06:11:02.362Z,73.10
2019-04-05T06:13:34.487Z,73.50
2019-04-05T06:16:06.735Z,74.30
2019-04-05T06:18:38.844Z,72.70
2019-04-05T06:21:10.947Z,73.00
2019-04-05T06:23:43.109Z,71.80
2019-04-05T06:26:15.639Z,71.50
2019-04-05T06:28:50.343Z,71.80
2019-04-05T06:31:23.004Z,70.30
2019-04-05T06:33:55.045Z,69.80
2019-04-05T06:36:27.209Z,69.80
2019-04-05T06:38:59.302Z,70.20
2019-04-05T06:41:31.539Z,70.00
2019-04-05T06:44:03.689Z,69.50
2019-04-05T06:46:35.730Z,67.30
2019-04-05T06:49:07.744Z,67.80
2019-04-05T06:51:39.921Z,68.40
2019-04-05T06:54:11.957Z,68.40
2019-04-05T06:56:44.264Z,64.70
2019-04-05T06:59:19.238Z,64.90
2019-04-05T07:01:50.093Z,63.60
2019-04-05T07:04:22.253Z,62.30
2019-04-05T07:06:54.512Z,63.80
2019-04-05T07:09:27.800Z,62.80
2019-04-05T07:11:59.917Z,61.20
2019-04-05T07:14:32.128Z,59.90
2019-04-05T07:17:04.258Z,60.50
2019-04-05T07:19:36.477Z,59.70
2019-04-05T07:22:08.656Z,59.80
2019-04-05T07:24:40.862Z,59.40
2019-04-05T07:27:13.048Z,58.10
2019-04-05T07:29:45.138Z,58.50
2019-04-05T07:32:17.332Z,57.90
2019-04-05T07:34:49.490Z,57.40
2019-04-05T07:37:21.620Z,57.60
2019-04-05T07:39:53.691Z,58.30
2019-04-05T07:42:25.813Z,57.50
2019-04-05T07:44:57.906Z,57.80
2019-04-05T07:47:29.967Z,56.20
2019-04-05T07:50:02.131Z,57.00
2019-04-05T07:52:34.332Z,57.60
2019-04-05T07:55:06.931Z,58.70
2019-04-05T07:57:39.273Z,58.20
2019-04-05T08:00:42.491Z,57.40
2019-04-05T08:03:15.300Z,58.00
2019-04-05T08:05:49.430Z,56.80
2019-04-05T08:08:40.576Z,56.70
2019-04-05T08:11:13.155Z,56.20
2019-04-05T08:13:49.164Z,56.40
2019-04-05T08:16:21.380Z,56.10
2019-04-05T08:18:58.079Z,55.90
2019-04-05T08:21:27.336Z,56.00
2019-04-05T08:23:59.552Z,55.80
2019-04-05T08:26:31.750Z,55.50
2019-04-05T08:29:04.426Z,55.70
2019-04-05T08:31:36.558Z,55.60
2019-04-05T08:34:08.954Z,56.00
2019-04-05T08:36:41.052Z,54.70
2019-04-05T08:39:13.291Z,54.40
2019-04-05T08:41:45.435Z,54.60
2019-04-05T08:44:17.598Z,54.70
2019-04-05T08:46:49.672Z,54.30
2019-04-05T08:49:21.744Z,54.90
2019-04-05T08:51:53.835Z,56.40
2019-04-05T08:54:32.398Z,57.90
2019-04-05T08:56:59.964Z,56.60
2019-04-05T08:59:32.498Z,56.10
2019-04-05T09:02:04.711Z,55.00
2019-04-05T09:04:37.167Z,54.20
2019-04-05T09:07:09.685Z,54.20
2019-04-05T09:09:42.279Z,54.30
2019-04-05T09:12:14.779Z,55.30
2019-04-05T09:14:46.975Z,55.50
2019-04-05T09:17:19.114Z,56.80
2019-04-05T09:19:53.877Z,57.60
2019-04-05T09:22:25.845Z,57.90
2019-04-05T09:24:57.952Z,57.90
2019-04-05T09:27:30.277Z,58.30
2019-04-05T09:30:02.374Z,58.80
2019-04-05T09:32:36.588Z,58.40
2019-04-05T09:35:09.489Z,58.90
2019-04-05T09:37:41.627Z,58.60
2019-04-05T09:40:13.973Z,59.30
2019-04-05T09:42:46.046Z,59.80
2019-04-05T09:45:18.449Z,59.60
2019-04-05T09:47:50.890Z,60.00
2019-04-05T09:50:23.050Z,60.30
2019-04-05T09:52:55.173Z,60.00
2019-04-05T09:55:27.635Z,59.90
2019-04-05T09:57:59.691Z,58.50
2019-04-05T10:00:31.859Z,58.50
2019-04-05T10:03:04.104Z,59.10
2019-04-05T10:05:36.172Z,59.30
2019-04-05T10:08:08.368Z,59.10
2019-04-05T10:10:41.021Z,59.30
2019-04-05T10:13:13.307Z,59.70
2019-04-05T10:15:45.538Z,59.60
2019-04-05T10:18:17.657Z,60.00
2019-04-05T10:20:50.252Z,60.50
2019-04-05T10:23:22.617Z,61.60
2019-04-05T10:25:54.950Z,60.80
2019-04-05T10:28:27.013Z,60.40
2019-04-05T10:30:59.351Z,59.60
2019-04-05T10:33:32.003Z,60.80
2019-04-05T10:36:04.111Z,60.80
2019-04-05T10:38:36.176Z,59.80
2019-04-05T10:41:08.444Z,59.90
2019-04-05T10:43:40.660Z,60.80
2019-04-05T10:46:12.745Z,60.80
2019-04-05T10:48:44.937Z,60.40
2019-04-05T10:51:17.055Z,60.20
2019-04-05T10:53:49.149Z,59.50
2019-04-05T10:56:21.512Z,59.80
2019-04-05T10:58:53.677Z,59.60
2019-04-05T11:01:25.988Z,60.50
2019-04-05T11:03:58.547Z,60.30
2019-04-05T11:06:30.916Z,60.40
2019-04-05T11:09:07.920Z,61.20
2019-04-05T11:11:40.046Z,60.30
2019-04-05T11:14:14.083Z,61.10
2019-04-05T11:16:57.765Z,60.90
2019-04-05T11:19:20.118Z,60.60
2019-04-05T11:21:52.543Z,60.10
2019-04-05T11:24:24.583Z,59.60
2019-04-05T11:26:56.842Z,59.50
2019-04-05T11:29:28.992Z,59.60
2019-04-05T11:32:01.140Z,59.30
2019-04-05T11:34:34.230Z,59.00
2019-04-05T11:37:06.462Z,58.00
2019-04-05T11:39:39.047Z,57.60
2019-04-05T11:42:15.543Z,58.20
2019-04-05T11:44:53.907Z,57.70
2019-04-05T11:47:26.733Z,57.60
2019-04-05T11:50:02.007Z,58.50
2019-04-05T11:52:34.292Z,57.70
2019-04-05T11:55:07.006Z,57.50
2019-04-05T11:57:41.023Z,57.60
2019-04-05T12:00:20.766Z,57.30
2019-04-05T12:03:05.132Z,57.30
2019-04-05T12:05:37.555Z,57.20
2019-04-05T12:08:10.039Z,57.60
2019-04-05T12:10:42.230Z,57.70
2019-04-05T12:13:14.418Z,58.30
2019-04-05T12:15:46.674Z,58.40
2019-04-05T12:18:19.863Z,58.00
2019-04-05T12:20:59.752Z,58.90
2019-04-05T12:23:26.553Z,59.40
2019-04-05T12:25:58.763Z,58.90
2019-04-05T12:28:31.275Z,58.50
2019-04-05T12:31:03.455Z,58.00
2019-04-05T12:33:35.671Z,58.30
2019-04-05T12:36:08.684Z,59.00
2019-04-05T12:38:40.906Z,58.50
2019-04-05T12:41:13.178Z,57.80
2019-04-05T12:43:45.539Z,58.20
2019-04-05T12:46:17.866Z,59.40
2019-04-05T12:48:50.360Z,58.10
2019-04-05T12:51:22.459Z,58.20
2019-04-05T12:53:56.768Z,58.10
2019-04-05T12:56:29.985Z,57.90
2019-04-05T12:59:02.251Z,58.50
2019-04-05T13:01:34.764Z,58.30
2019-04-05T13:04:07.443Z,58.30
2019-04-05T13:06:42.211Z,58.00
2019-04-05T13:09:14.261Z,58.00
2019-04-05T13:11:46.548Z,58.20
2019-04-05T13:14:18.678Z,58.60
2019-04-05T13:16:50.886Z,58.10
2019-04-05T13:19:23.531Z,58.60
2019-04-05T13:21:55.842Z,58.60
2019-04-05T13:24:28.268Z,58.70
2019-04-05T13:27:02.179Z,58.00
2019-04-05T13:29:34.346Z,58.70
2019-04-05T13:32:06.578Z,59.10
2019-04-05T13:34:38.849Z,58.80
2019-04-05T13:37:20.035Z,59.70
2019-04-05T13:39:44.799Z,60.00
2019-04-05T13:42:17.219Z,60.30
2019-04-05T13:44:49.434Z,61.20
2019-04-05T13:47:22.226Z,61.80
2019-04-05T13:49:54.357Z,62.90
2019-04-05T13:52:26.493Z,63.80
2019-04-05T13:54:58.670Z,64.30
2019-04-05T13:57:30.836Z,64.90
2019-04-05T14:00:03.120Z,65.50
2019-04-05T14:02:35.417Z,64.80
2019-04-05T14:05:08.901Z,64.00
2019-04-05T14:07:41.017Z,64.50
2019-04-05T14:10:13.645Z,64.90
2019-04-05T14:12:45.806Z,65.20
2019-04-05T14:15:18.125Z,67.10
2019-04-05T14:17:50.269Z,69.10
2019-04-05T14:20:24.439Z,71.00
2019-04-05T14:22:56.510Z,74.00
2019-04-05T14:25:30.211Z,76.70
2019-04-05T14:28:04.672Z,79.50
2019-04-05T14:30:36.462Z,81.60
2019-04-05T14:33:08.583Z,82.10
2019-04-05T14:35:40.748Z,83.30
2019-04-05T14:38:12.924Z,84.70
2019-04-05T14:40:45.095Z,88.60
2019-04-05T14:43:17.434Z,90.50
2019-04-05T14:45:52.575Z,91.20
2019-04-05T14:48:27.307Z,91.80
2019-04-05T14:50:58.595Z,92.50
2019-04-05T14:53:33.845Z,93.30
2019-04-05T14:56:06.080Z,93.90
2019-04-05T14:58:38.866Z,93.90
2019-04-05T15:01:12.980Z,94.30
2019-04-05T15:03:45.028Z,93.60
2019-04-05T15:06:17.825Z,93.50
2019-04-05T15:08:52.094Z,93.90
2019-04-05T15:11:23.875Z,93.10
2019-04-05T15:13:55.934Z,94.80
2019-04-05T15:16:28.051Z,94.80
2019-04-05T15:19:00.230Z,95.50
2019-04-05T15:21:34.698Z,94.80
2019-04-05T15:24:08.830Z,95.50
2019-04-05T15:26:41.053Z,95.70
2019-04-05T15:29:14.066Z,95.10
2019-04-05T15:31:46.405Z,95.40
2019-04-05T15:34:18.722Z,96.00
2019-04-05T15:36:51.000Z,96.10
2019-04-05T15:39:23.286Z,97.30
2019-04-05T15:41:55.525Z,98.00
2019-04-05T15:44:27.654Z,98.90
2019-04-05T15:46:59.797Z,99.30
2019-04-05T15:49:32.562Z,99.90
2019-04-05T15:52:17.757Z,99.90
2019-04-05T15:54:39.898Z,99.90
2019-04-05T15:57:12.737Z,99.60
2019-04-05T15:59:45.380Z,99.90
2019-04-05T16:02:18.162Z,99.90
2019-04-05T16:04:50.462Z,99.90
2019-04-05T16:07:41.747Z,99.70
2019-04-05T16:10:15.075Z,99.40
2019-04-05T16:12:47.472Z,99.90
2019-04-05T16:15:20.252Z,99.90
2019-04-05T16:17:52.507Z,99.90
2019-04-05T16:20:25.016Z,99.40
2019-04-05T16:22:57.639Z,99.90
2019-04-05T16:25:29.760Z,99.90
2019-04-05T16:28:02.890Z,99.90
2019-04-05T16:30:35.126Z,99.90
2019-04-05T16:33:07.484Z,99.90
2019-04-05T16:35:39.754Z,99.90
2019-04-05T16:38:11.995Z,99.90
2019-04-05T16:40:44.381Z,99.90
2019-04-05T16:43:16.778Z,99.90
2019-04-05T16:45:49.406Z,99.90
2019-04-05T16:48:21.843Z,99.90
2019-04-05T16:50:54.111Z,99.90
2019-04-05T16:53:26.375Z,99.90
2019-04-05T16:55:58.723Z,99.90
2019-04-05T16:58:31.119Z,99.90
2019-04-05T17:01:03.389Z,99.90
2019-04-05T17:03:36.071Z,99.90
2019-04-05T17:06:15.640Z,99.90
2019-04-05T17:08:48.431Z,99.90
2019-04-05T17:11:21.099Z,99.90
2019-04-05T17:13:53.456Z,99.90
2019-04-05T17:16:25.656Z,99.90
2019-04-05T17:19:00.762Z,99.90
2019-04-05T17:21:33.276Z,99.90
2019-04-05T17:24:05.703Z,99.90
2019-04-05T17:26:38.197Z,99.90
2019-04-05T17:29:10.346Z,99.90
2019-04-05T17:31:42.430Z,99.90
2019-04-05T17:34:14.767Z,99.90
2019-04-05T17:36:47.112Z,99.90
2019-04-05T17:39:19.285Z,99.90
2019-04-05T17:41:51.854Z,99.90
2019-04-05T17:44:24.224Z,99.90
2019-04-05T17:46:56.518Z,99.90
2019-04-05T17:49:28.674Z,99.90
2019-04-05T17:52:01.241Z,99.90
2019-04-05T17:54:33.731Z,99.90
2019-04-05T17:57:06.419Z,99.90
2019-04-05T17:59:40.256Z,99.90
2019-04-05T18:02:12.697Z,99.90
2019-04-05T18:04:45.219Z,99.90
2019-04-05T18:07:17.362Z,99.90
2019-04-05T18:09:49.697Z,99.90
2019-04-05T18:12:22.185Z,99.90
2019-04-05T18:14:54.600Z,99.90
2019-04-05T18:17:26.866Z,99.90
2019-04-05T18:19:59.411Z,99.90
2019-04-05T18:22:32.119Z,99.90
2019-04-05T18:25:06.340Z,99.90
2019-04-05T18:27:38.657Z,99.90
2019-04-05T18:30:11.384Z,99.90
2019-04-05T18:32:43.592Z,99.90
2019-04-05T18:35:16.366Z,99.90
2019-04-05T18:37:48.688Z,99.90
2019-04-05T18:40:21.165Z,99.90
2019-04-05T18:42:53.598Z,99.90
2019-04-05T18:45:25.855Z,99.90
2019-04-05T18:47:58.443Z,99.90
2019-04-05T18:50:30.610Z,99.90
2019-04-05T18:53:03.285Z,99.90
2019-04-05T18:55:35.477Z,99.90
2019-04-05T18:58:07.879Z,99.90
2019-04-05T19:00:40.424Z,99.90
2019-04-05T19:03:12.597Z,99.90
2019-04-05T19:05:44.841Z,99.90
2019-04-05T19:08:17.162Z,99.90
2019-04-05T19:10:49.684Z,99.90
2019-04-05T19:13:22.327Z,99.90
2019-04-05T19:15:54.984Z,99.90
2019-04-05T19:18:27.612Z,99.90
2019-04-05T19:21:00.257Z,99.90
2019-04-05T19:23:32.457Z,99.90
2019-04-05T19:26:05.319Z,99.90
2019-04-05T19:28:39.062Z,99.90
2019-04-05T19:49:12.988Z,99.90
2019-04-05T19:51:45.457Z,99.90
2019-04-05T19:54:18.060Z,99.90
2019-04-05T19:56:50.646Z,99.90
2019-04-05T19:59:23.047Z,99.90
2019-04-05T20:01:55.506Z,99.90
2019-04-05T20:04:28.710Z,99.90
2019-04-05T20:07:01.503Z,99.90
2019-04-05T20:09:33.790Z,99.90
2019-04-05T20:12:06.410Z,99.90
2019-04-05T20:14:40.234Z,99.90
2019-04-05T20:17:13.394Z,99.90
2019-04-05T20:19:47.227Z,99.90
2019-04-05T20:22:19.790Z,99.90
2019-04-05T20:24:52.591Z,99.90
2019-04-05T20:27:26.804Z,99.90
2019-04-05T20:29:59.549Z,99.90
2019-04-05T20:32:41.034Z,99.90
2019-04-05T20:35:14.216Z,99.90
2019-04-05T20:37:47.935Z,99.90
2019-04-05T20:40:20.522Z,99.90
2019-04-05T20:42:55.407Z,99.90
2019-04-05T20:45:28.450Z,99.90
2019-04-05T20:48:01.190Z,99.90
2019-04-05T20:50:33.738Z,99.90
2019-04-05T20:53:06.455Z,99.90
2019-04-05T20:55:39.385Z,99.90
2019-04-05T20:58:12.766Z,99.90
2019-04-05T21:00:45.149Z,99.90
2019-04-05T21:03:18.480Z,99.90
2019-04-05T21:05:50.713Z,99.90
2019-04-05T21:08:24.553Z,99.90
2019-04-05T21:10:57.282Z,99.90
2019-04-05T21:13:30.059Z,99.90
2019-04-05T21:16:04.066Z,99.90
2019-04-05T21:18:43.495Z,99.90
2019-04-05T21:21:16.923Z,99.90
2019-04-05T21:23:49.634Z,99.90
2019-04-05T21:26:37.429Z,99.90
2019-04-05T21:29:12.617Z,99.90
2019-04-05T21:31:44.104Z,99.90
2019-04-05T21:34:16.579Z,99.90
2019-04-05T21:36:48.930Z,99.90
2019-04-05T21:39:26.274Z,99.90
2019-04-05T21:41:58.808Z,99.90
2019-04-05T21:44:31.677Z,99.90
2019-04-05T21:47:03.905Z,99.90
2019-04-05T21:49:36.176Z,99.90
2019-04-05T21:52:08.807Z,99.90
2019-04-05T21:54:47.464Z,99.90
2019-04-05T21:57:15.284Z,99.90
2019-04-05T21:59:49.824Z,99.90
2019-04-05T22:02:23.096Z,99.90
2019-04-05T22:04:55.347Z,99.90
2019-04-05T22:07:29.529Z,99.90
2019-04-05T22:10:01.841Z,99.90
2019-04-05T22:12:33.887Z,99.90
2019-04-05T22:15:06.336Z,99.90
2019-04-05T22:17:38.641Z,99.90
2019-04-05T22:20:11.360Z,99.90
2019-04-05T22:22:43.518Z,99.90
2019-04-05T22:25:15.830Z,99.90
2019-04-05T22:27:47.977Z,99.90
2019-04-05T22:30:20.386Z,99.90
2019-04-05T22:32:52.665Z,99.90
2019-04-05T22:35:24.885Z,99.90
2019-04-05T22:37:57.042Z,99.90
2019-04-05T22:40:29.340Z,99.90
2019-04-05T22:43:01.607Z,99.90
2019-04-05T22:45:33.760Z,99.90
2019-04-05T22:48:06.241Z,99.90
2019-04-05T22:50:38.527Z,99.90
2019-04-05T22:53:10.687Z,99.90
2019-04-05T22:55:42.986Z,99.90
2019-04-05T22:58:15.124Z,99.90
2019-04-05T23:00:47.357Z,99.90
2019-04-05T23:03:25.105Z,99.90
2019-04-05T23:05:57.576Z,99.90
2019-04-05T23:08:29.983Z,99.90
2019-04-05T23:11:02.623Z,99.90
2019-04-05T23:13:35.303Z,99.90
2019-04-05T23:16:07.631Z,99.90
2019-04-05T23:18:39.729Z,99.90
2019-04-05T23:21:12.343Z,99.90
2019-04-05T23:23:44.663Z,99.90
2019-04-05T23:26:16.919Z,99.90
2019-04-05T23:28:49.198Z,99.90
2019-04-05T23:31:21.392Z,99.90
2019-04-05T23:33:53.547Z,99.90
2019-04-05T23:36:26.054Z,99.90
2019-04-05T23:38:58.168Z,99.90
2019-04-05T23:41:30.584Z,99.90
2019-04-05T23:44:02.945Z,99.90
2019-04-05T23:46:35.312Z,99.90
2019-04-05T23:49:07.433Z,99.90
2019-04-05T23:51:39.646Z,99.90
2019-04-05T23:54:11.738Z,99.90
2019-04-05T23:56:44.266Z,99.90
2019-04-05T23:59:16.504Z,99.90
